Terminal Aerodrome Forecast
Issued by NWS

Home | Current Version | Previous Version | Graphics & Text | Print | Product List | Glossary Off
Versions: 1 2 3 4 5 6 7 8 9 10 11 12 13 14 15 16 17 18 19

000
FTUS43 KDDC 230520
TAFHYS
TAF
KHYS 230520Z 2306/2406 17012KT P6SM SCT080
     FM231500 19017G27KT P6SM SCT200
     FM240000 17014KT P6SM SCT250=

USA.gov is the U.S. government's official web portal to all federal, state and local government web resources and services.